sensor_id;sensor_type;location;lat;lon;timestamp;P1;durP1;ratioP1;P2;durP2;ratioP2
735;SDS011;352;48.626;9.238;2023-06-26T00:01:54;9.63;;;8.73;;
735;SDS011;352;48.626;9.238;2023-06-26T00:04:21;9.10;;;8.30;;
735;SDS011;352;48.626;9.238;2023-06-26T00:06:49;10.63;;;8.80;;
735;SDS011;352;48.626;9.238;2023-06-26T00:09:16;10.00;;;9.00;;
735;SDS011;352;48.626;9.238;2023-06-26T00:11:42;10.40;;;9.17;;
735;SDS011;352;48.626;9.238;2023-06-26T00:14:09;9.20;;;8.00;;
735;SDS011;352;48.626;9.238;2023-06-26T00:16:36;10.50;;;8.30;;
735;SDS011;352;48.626;9.238;2023-06-26T00:19:03;9.83;;;8.83;;
735;SDS011;352;48.626;9.238;2023-06-26T00:21:29;9.77;;;8.97;;
735;SDS011;352;48.626;9.238;2023-06-26T00:23:57;8.90;;;8.00;;
735;SDS011;352;48.626;9.238;2023-06-26T00:26:24;8.70;;;7.90;;
735;SDS011;352;48.626;9.238;2023-06-26T00:28:51;10.80;;;8.50;;
735;SDS011;352;48.626;9.238;2023-06-26T00:31:17;9.47;;;8.27;;
735;SDS011;352;48.626;9.238;2023-06-26T00:33:44;9.97;;;8.97;;
735;SDS011;352;48.626;9.238;2023-06-26T00:36:10;16.63;;;9.23;;
735;SDS011;352;48.626;9.238;2023-06-26T00:38:37;9.27;;;8.30;;
735;SDS011;352;48.626;9.238;2023-06-26T00:41:05;9.50;;;8.60;;
735;SDS011;352;48.626;9.238;2023-06-26T00:43:37;12.50;;;8.80;;
735;SDS011;352;48.626;9.238;2023-06-26T00:46:04;9.30;;;8.40;;
735;SDS011;352;48.626;9.238;2023-06-26T00:48:33;10.00;;;8.97;;
735;SDS011;352;48.626;9.238;2023-06-26T00:51:00;9.40;;;8.40;;
735;SDS011;352;48.626;9.238;2023-06-26T00:53:27;10.30;;;9.40;;
735;SDS011;352;48.626;9.238;2023-06-26T00:55:54;9.10;;;8.17;;
735;SDS011;352;48.626;9.238;2023-06-26T00:58:23;8.80;;;7.90;;
735;SDS011;352;48.626;9.238;2023-06-26T01:00:50;9.77;;;8.87;;
735;SDS011;352;48.626;9.238;2023-06-26T01:03:17;13.00;;;9.60;;
735;SDS011;352;48.626;9.238;2023-06-26T01:05:44;9.70;;;8.80;;
735;SDS011;352;48.626;9.238;2023-06-26T01:08:14;9.83;;;8.43;;
735;SDS011;352;48.626;9.238;2023-06-26T01:10:42;10.50;;;9.10;;
735;SDS011;352;48.626;9.238;2023-06-26T01:13:08;11.17;;;9.40;;
735;SDS011;352;48.626;9.238;2023-06-26T01:15:37;10.17;;;8.23;;
735;SDS011;352;48.626;9.238;2023-06-26T01:18:03;9.77;;;8.87;;
735;SDS011;352;48.626;9.238;2023-06-26T01:20:31;9.87;;;8.87;;
735;SDS011;352;48.626;9.238;2023-06-26T01:23:02;9.60;;;8.70;;
735;SDS011;352;48.626;9.238;2023-06-26T01:25:35;10.00;;;9.00;;
735;SDS011;352;48.626;9.238;2023-06-26T01:28:08;9.50;;;8.60;;
735;SDS011;352;48.626;9.238;2023-06-26T01:30:37;10.27;;;8.93;;
735;SDS011;352;48.626;9.238;2023-06-26T01:33:08;9.60;;;8.70;;
735;SDS011;352;48.626;9.238;2023-06-26T01:35:35;9.43;;;8.53;;
735;SDS011;352;48.626;9.238;2023-06-26T01:38:12;11.53;;;10.43;;
735;SDS011;352;48.626;9.238;2023-06-26T01:40:39;9.73;;;8.80;;
735;SDS011;352;48.626;9.238;2023-06-26T01:43:06;10.30;;;9.37;;
735;SDS011;352;48.626;9.238;2023-06-26T01:45:42;9.80;;;8.80;;
735;SDS011;352;48.626;9.238;2023-06-26T01:48:10;10.23;;;8.80;;
735;SDS011;352;48.626;9.238;2023-06-26T01:50:39;10.17;;;9.27;;
735;SDS011;352;48.626;9.238;2023-06-26T01:53:10;10.30;;;9.37;;
735;SDS011;352;48.626;9.238;2023-06-26T01:55:40;10.87;;;9.77;;
735;SDS011;352;48.626;9.238;2023-06-26T01:58:13;11.13;;;10.03;;
735;SDS011;352;48.626;9.238;2023-06-26T02:00:41;9.53;;;8.63;;
735;SDS011;352;48.626;9.238;2023-06-26T02:03:09;10.50;;;9.47;;
735;SDS011;352;48.626;9.238;2023-06-26T02:05:35;9.57;;;8.67;;
735;SDS011;352;48.626;9.238;2023-06-26T02:08:02;10.37;;;9.27;;
735;SDS011;352;48.626;9.238;2023-06-26T02:10:29;9.33;;;8.50;;
735;SDS011;352;48.626;9.238;2023-06-26T02:12:56;10.80;;;9.83;;
735;SDS011;352;48.626;9.238;2023-06-26T02:15:24;9.97;;;9.03;;
735;SDS011;352;48.626;9.238;2023-06-26T02:17:51;10.23;;;9.33;;
735;SDS011;352;48.626;9.238;2023-06-26T02:20:17;11.10;;;10.00;;
735;SDS011;352;48.626;9.238;2023-06-26T02:22:44;9.33;;;8.47;;
735;SDS011;352;48.626;9.238;2023-06-26T02:25:11;9.70;;;8.80;;
735;SDS011;352;48.626;9.238;2023-06-26T02:27:38;9.43;;;8.53;;
735;SDS011;352;48.626;9.238;2023-06-26T02:30:05;10.27;;;9.20;;
735;SDS011;352;48.626;9.238;2023-06-26T02:32:35;10.10;;;9.20;;
735;SDS011;352;48.626;9.238;2023-06-26T02:35:02;9.90;;;9.00;;
735;SDS011;352;48.626;9.238;2023-06-26T02:37:29;10.53;;;8.70;;
735;SDS011;352;48.626;9.238;2023-06-26T02:39:56;10.13;;;9.23;;
735;SDS011;352;48.626;9.238;2023-06-26T02:42:22;9.43;;;8.53;;
735;SDS011;352;48.626;9.238;2023-06-26T02:44:49;10.27;;;9.27;;
735;SDS011;352;48.626;9.238;2023-06-26T02:47:16;10.57;;;9.57;;
735;SDS011;352;48.626;9.238;2023-06-26T02:49:44;12.03;;;10.93;;
735;SDS011;352;48.626;9.238;2023-06-26T02:52:11;10.13;;;9.10;;
735;SDS011;352;48.626;9.238;2023-06-26T02:54:38;10.13;;;9.20;;
735;SDS011;352;48.626;9.238;2023-06-26T02:57:05;12.57;;;8.57;;
735;SDS011;352;48.626;9.238;2023-06-26T02:59:31;10.03;;;9.03;;
735;SDS011;352;48.626;9.238;2023-06-26T03:01:58;11.00;;;10.00;;
735;SDS011;352;48.626;9.238;2023-06-26T03:04:25;11.30;;;9.77;;
735;SDS011;352;48.626;9.238;2023-06-26T03:06:53;10.50;;;9.50;;
735;SDS011;352;48.626;9.238;2023-06-26T03:09:20;9.40;;;8.53;;
735;SDS011;352;48.626;9.238;2023-06-26T03:11:47;10.63;;;9.63;;
735;SDS011;352;48.626;9.238;2023-06-26T03:14:13;10.77;;;9.77;;
735;SDS011;352;48.626;9.238;2023-06-26T03:16:40;10.27;;;9.30;;
735;SDS011;352;48.626;9.238;2023-06-26T03:19:07;11.30;;;10.17;;
735;SDS011;352;48.626;9.238;2023-06-26T03:21:33;10.47;;;9.37;;
735;SDS011;352;48.626;9.238;2023-06-26T03:24:02;10.03;;;9.10;;
735;SDS011;352;48.626;9.238;2023-06-26T03:26:28;9.90;;;8.90;;
735;SDS011;352;48.626;9.238;2023-06-26T03:28:55;9.37;;;8.50;;
735;SDS011;352;48.626;9.238;2023-06-26T03:31:22;10.17;;;9.17;;
735;SDS011;352;48.626;9.238;2023-06-26T03:33:48;9.53;;;8.67;;
735;SDS011;352;48.626;9.238;2023-06-26T03:36:15;10.47;;;9.47;;
735;SDS011;352;48.626;9.238;2023-06-26T03:38:42;10.17;;;9.17;;
735;SDS011;352;48.626;9.238;2023-06-26T03:41:10;9.87;;;8.93;;
735;SDS011;352;48.626;9.238;2023-06-26T03:43:37;10.50;;;9.50;;
735;SDS011;352;48.626;9.238;2023-06-26T03:46:03;9.87;;;8.97;;
735;SDS011;352;48.626;9.238;2023-06-26T03:48:30;9.90;;;8.90;;
735;SDS011;352;48.626;9.238;2023-06-26T03:50:57;9.80;;;8.90;;
735;SDS011;352;48.626;9.238;2023-06-26T03:53:24;11.20;;;10.10;;
735;SDS011;352;48.626;9.238;2023-06-26T03:55:50;11.40;;;10.30;;
735;SDS011;352;48.626;9.238;2023-06-26T03:58:18;10.63;;;9.50;;
735;SDS011;352;48.626;9.238;2023-06-26T04:00:45;11.20;;;9.97;;
735;SDS011;352;48.626;9.238;2023-06-26T04:03:13;10.03;;;9.03;;
735;SDS011;352;48.626;9.238;2023-06-26T04:05:39;10.63;;;9.63;;
735;SDS011;352;48.626;9.238;2023-06-26T04:08:06;10.23;;;9.33;;
735;SDS011;352;48.626;9.238;2023-06-26T04:10:33;12.00;;;10.80;;
735;SDS011;352;48.626;9.238;2023-06-26T04:13:01;10.13;;;9.03;;
735;SDS011;352;48.626;9.238;2023-06-26T04:15:29;10.87;;;9.53;;
735;SDS011;352;48.626;9.238;2023-06-26T04:17:55;10.23;;;9.30;;
735;SDS011;352;48.626;9.238;2023-06-26T04:20:22;11.10;;;9.20;;
735;SDS011;352;48.626;9.238;2023-06-26T04:22:49;10.30;;;9.30;;
735;SDS011;352;48.626;9.238;2023-06-26T04:25:15;10.47;;;9.50;;
735;SDS011;352;48.626;9.238;2023-06-26T04:27:42;10.00;;;9.00;;
735;SDS011;352;48.626;9.238;2023-06-26T04:30:09;9.60;;;8.70;;
735;SDS011;352;48.626;9.238;2023-06-26T04:32:38;9.50;;;8.60;;
735;SDS011;352;48.626;9.238;2023-06-26T04:35:05;10.97;;;8.93;;
735;SDS011;352;48.626;9.238;2023-06-26T04:37:33;9.10;;;8.20;;
735;SDS011;352;48.626;9.238;2023-06-26T04:40:01;10.33;;;9.13;;
735;SDS011;352;48.626;9.238;2023-06-26T04:42:29;9.70;;;8.80;;
735;SDS011;352;48.626;9.238;2023-06-26T04:44:55;9.50;;;8.70;;
735;SDS011;352;48.626;9.238;2023-06-26T04:47:22;10.07;;;9.17;;
735;SDS011;352;48.626;9.238;2023-06-26T04:49:50;10.13;;;8.43;;
735;SDS011;352;48.626;9.238;2023-06-26T04:52:17;9.37;;;8.47;;
735;SDS011;352;48.626;9.238;2023-06-26T04:54:44;11.03;;;8.83;;
735;SDS011;352;48.626;9.238;2023-06-26T04:57:11;9.20;;;8.30;;
735;SDS011;352;48.626;9.238;2023-06-26T04:59:38;10.37;;;9.30;;
735;SDS011;352;48.626;9.238;2023-06-26T05:02:05;10.30;;;9.20;;
735;SDS011;352;48.626;9.238;2023-06-26T05:04:31;10.70;;;9.60;;
735;SDS011;352;48.626;9.238;2023-06-26T05:06:59;11.87;;;10.70;;
735;SDS011;352;48.626;9.238;2023-06-26T05:09:26;10.97;;;9.40;;
735;SDS011;352;48.626;9.238;2023-06-26T05:11:53;10.30;;;9.30;;
735;SDS011;352;48.626;9.238;2023-06-26T05:14:19;10.30;;;9.30;;
735;SDS011;352;48.626;9.238;2023-06-26T05:16:46;9.90;;;9.00;;
735;SDS011;352;48.626;9.238;2023-06-26T05:19:13;10.70;;;9.20;;
735;SDS011;352;48.626;9.238;2023-06-26T05:21:39;10.20;;;9.20;;
735;SDS011;352;48.626;9.238;2023-06-26T05:24:08;9.43;;;8.53;;
735;SDS011;352;48.626;9.238;2023-06-26T05:26:36;11.47;;;10.27;;
735;SDS011;352;48.626;9.238;2023-06-26T05:29:03;10.73;;;9.70;;
735;SDS011;352;48.626;9.238;2023-06-26T05:31:30;11.07;;;9.83;;
735;SDS011;352;48.626;9.238;2023-06-26T05:33:58;10.67;;;9.67;;
735;SDS011;352;48.626;9.238;2023-06-26T05:36:29;11.87;;;10.60;;
735;SDS011;352;48.626;9.238;2023-06-26T05:38:58;11.40;;;10.40;;
735;SDS011;352;48.626;9.238;2023-06-26T05:41:27;11.00;;;10.00;;
735;SDS011;352;48.626;9.238;2023-06-26T05:43:54;10.73;;;9.83;;
735;SDS011;352;48.626;9.238;2023-06-26T05:46:21;11.23;;;10.23;;
735;SDS011;352;48.626;9.238;2023-06-26T05:48:48;11.50;;;10.50;;
735;SDS011;352;48.626;9.238;2023-06-26T05:51:15;11.23;;;10.30;;
735;SDS011;352;48.626;9.238;2023-06-26T05:53:42;10.77;;;9.77;;
735;SDS011;352;48.626;9.238;2023-06-26T05:56:09;10.30;;;9.33;;
735;SDS011;352;48.626;9.238;2023-06-26T05:58:38;9.70;;;8.70;;
735;SDS011;352;48.626;9.238;2023-06-26T06:01:06;10.43;;;9.43;;
735;SDS011;352;48.626;9.238;2023-06-26T06:03:33;10.20;;;9.20;;
735;SDS011;352;48.626;9.238;2023-06-26T06:06:00;10.70;;;9.90;;
735;SDS011;352;48.626;9.238;2023-06-26T06:08:26;10.50;;;9.70;;
735;SDS011;352;48.626;9.238;2023-06-26T06:10:53;10.60;;;9.73;;
735;SDS011;352;48.626;9.238;2023-06-26T06:13:20;9.57;;;8.77;;
735;SDS011;352;48.626;9.238;2023-06-26T06:15:48;9.83;;;9.03;;
735;SDS011;352;48.626;9.238;2023-06-26T06:18:15;9.27;;;8.57;;
735;SDS011;352;48.626;9.238;2023-06-26T06:20:42;9.60;;;8.70;;
735;SDS011;352;48.626;9.238;2023-06-26T06:23:08;9.63;;;8.87;;
735;SDS011;352;48.626;9.238;2023-06-26T06:25:36;8.40;;;7.70;;
735;SDS011;352;48.626;9.238;2023-06-26T06:28:03;9.20;;;8.50;;
735;SDS011;352;48.626;9.238;2023-06-26T06:30:30;9.00;;;8.30;;
735;SDS011;352;48.626;9.238;2023-06-26T06:32:58;9.90;;;9.20;;
735;SDS011;352;48.626;9.238;2023-06-26T06:35:25;8.57;;;7.93;;
735;SDS011;352;48.626;9.238;2023-06-26T06:37:52;8.70;;;8.10;;
735;SDS011;352;48.626;9.238;2023-06-26T06:40:18;8.53;;;7.83;;
735;SDS011;352;48.626;9.238;2023-06-26T06:42:47;8.30;;;7.70;;
735;SDS011;352;48.626;9.238;2023-06-26T06:45:14;9.60;;;8.67;;
735;SDS011;352;48.626;9.238;2023-06-26T06:47:41;8.93;;;8.33;;
735;SDS011;352;48.626;9.238;2023-06-26T06:50:09;8.67;;;8.00;;
735;SDS011;352;48.626;9.238;2023-06-26T06:52:36;9.80;;;9.00;;
735;SDS011;352;48.626;9.238;2023-06-26T06:55:03;8.77;;;8.17;;
735;SDS011;352;48.626;9.238;2023-06-26T06:57:31;8.43;;;7.73;;
735;SDS011;352;48.626;9.238;2023-06-26T07:00:00;8.83;;;8.13;;
735;SDS011;352;48.626;9.238;2023-06-26T07:02:29;8.73;;;8.10;;
735;SDS011;352;48.626;9.238;2023-06-26T07:04:56;8.90;;;8.30;;
735;SDS011;352;48.626;9.238;2023-06-26T07:07:24;8.70;;;8.10;;
735;SDS011;352;48.626;9.238;2023-06-26T07:09:56;8.70;;;8.10;;
735;SDS011;352;48.626;9.238;2023-06-26T07:12:23;8.90;;;8.30;;
735;SDS011;352;48.626;9.238;2023-06-26T07:14:50;8.33;;;7.73;;
735;SDS011;352;48.626;9.238;2023-06-26T07:17:17;8.27;;;7.67;;
735;SDS011;352;48.626;9.238;2023-06-26T07:19:43;8.37;;;7.77;;
735;SDS011;352;48.626;9.238;2023-06-26T07:22:10;8.73;;;8.00;;
735;SDS011;352;48.626;9.238;2023-06-26T07:24:38;8.83;;;8.20;;
735;SDS011;352;48.626;9.238;2023-06-26T07:27:05;8.73;;;8.13;;
735;SDS011;352;48.626;9.238;2023-06-26T07:29:32;8.60;;;8.10;;
735;SDS011;352;48.626;9.238;2023-06-26T07:31:58;8.63;;;8.03;;
735;SDS011;352;48.626;9.238;2023-06-26T07:34:25;9.40;;;8.80;;
735;SDS011;352;48.626;9.238;2023-06-26T07:36:52;8.97;;;8.27;;
735;SDS011;352;48.626;9.238;2023-06-26T07:39:18;8.60;;;7.90;;
735;SDS011;352;48.626;9.238;2023-06-26T07:41:46;8.67;;;8.17;;
735;SDS011;352;48.626;9.238;2023-06-26T07:44:13;8.20;;;7.70;;
735;SDS011;352;48.626;9.238;2023-06-26T07:46:40;8.80;;;8.20;;
735;SDS011;352;48.626;9.238;2023-06-26T07:49:07;8.83;;;8.13;;
735;SDS011;352;48.626;9.238;2023-06-26T07:51:33;8.10;;;7.50;;
735;SDS011;352;48.626;9.238;2023-06-26T07:54:00;7.70;;;7.20;;
735;SDS011;352;48.626;9.238;2023-06-26T07:56:27;8.87;;;8.07;;
735;SDS011;352;48.626;9.238;2023-06-26T07:58:55;8.93;;;8.20;;
735;SDS011;352;48.626;9.238;2023-06-26T08:01:23;9.97;;;9.03;;
735;SDS011;352;48.626;9.238;2023-06-26T08:03:50;8.93;;;8.23;;
735;SDS011;352;48.626;9.238;2023-06-26T08:06:17;9.90;;;9.20;;
735;SDS011;352;48.626;9.238;2023-06-26T08:08:43;8.33;;;7.80;;
735;SDS011;352;48.626;9.238;2023-06-26T08:11:10;9.13;;;8.43;;
735;SDS011;352;48.626;9.238;2023-06-26T08:13:37;8.03;;;7.47;;
735;SDS011;352;48.626;9.238;2023-06-26T08:16:05;8.57;;;7.87;;
735;SDS011;352;48.626;9.238;2023-06-26T08:18:32;8.50;;;7.90;;
735;SDS011;352;48.626;9.238;2023-06-26T08:20:59;8.10;;;7.60;;
735;SDS011;352;48.626;9.238;2023-06-26T08:23:25;8.63;;;8.00;;
735;SDS011;352;48.626;9.238;2023-06-26T08:25:52;8.53;;;7.93;;
735;SDS011;352;48.626;9.238;2023-06-26T08:28:19;11.67;;;10.57;;
735;SDS011;352;48.626;9.238;2023-06-26T08:30:45;9.57;;;8.80;;
735;SDS011;352;48.626;9.238;2023-06-26T08:33:13;16.83;;;15.57;;
735;SDS011;352;48.626;9.238;2023-06-26T08:35:40;7.87;;;7.37;;
735;SDS011;352;48.626;9.238;2023-06-26T08:38:07;8.07;;;7.47;;
735;SDS011;352;48.626;9.238;2023-06-26T08:40:34;7.90;;;7.30;;
735;SDS011;352;48.626;9.238;2023-06-26T08:43:02;8.40;;;7.60;;
735;SDS011;352;48.626;9.238;2023-06-26T08:45:29;8.03;;;7.50;;
735;SDS011;352;48.626;9.238;2023-06-26T08:47:56;8.00;;;7.50;;
735;SDS011;352;48.626;9.238;2023-06-26T08:50:30;7.57;;;6.97;;
735;SDS011;352;48.626;9.238;2023-06-26T08:53:01;7.80;;;7.20;;
735;SDS011;352;48.626;9.238;2023-06-26T08:55:33;8.20;;;7.70;;
735;SDS011;352;48.626;9.238;2023-06-26T08:58:03;7.97;;;7.37;;
735;SDS011;352;48.626;9.238;2023-06-26T09:00:30;8.20;;;7.60;;
735;SDS011;352;48.626;9.238;2023-06-26T09:02:57;7.80;;;7.30;;
735;SDS011;352;48.626;9.238;2023-06-26T09:05:25;7.20;;;6.70;;
735;SDS011;352;48.626;9.238;2023-06-26T09:07:54;7.40;;;7.00;;
735;SDS011;352;48.626;9.238;2023-06-26T09:10:21;7.87;;;7.37;;
735;SDS011;352;48.626;9.238;2023-06-26T09:12:48;8.17;;;7.57;;
735;SDS011;352;48.626;9.238;2023-06-26T09:15:15;8.30;;;7.60;;
735;SDS011;352;48.626;9.238;2023-06-26T09:17:44;7.57;;;7.00;;
735;SDS011;352;48.626;9.238;2023-06-26T09:20:12;8.63;;;8.03;;
735;SDS011;352;48.626;9.238;2023-06-26T09:22:40;7.80;;;7.20;;
735;SDS011;352;48.626;9.238;2023-06-26T09:25:10;8.97;;;8.27;;
735;SDS011;352;48.626;9.238;2023-06-26T09:27:37;7.57;;;7.07;;
735;SDS011;352;48.626;9.238;2023-06-26T09:30:04;7.63;;;7.13;;
735;SDS011;352;48.626;9.238;2023-06-26T09:32:33;7.97;;;7.37;;
735;SDS011;352;48.626;9.238;2023-06-26T09:35:01;7.87;;;6.47;;
735;SDS011;352;48.626;9.238;2023-06-26T09:37:29;7.27;;;6.87;;
735;SDS011;352;48.626;9.238;2023-06-26T09:39:56;7.47;;;6.77;;
735;SDS011;352;48.626;9.238;2023-06-26T09:42:24;8.30;;;7.80;;
735;SDS011;352;48.626;9.238;2023-06-26T09:44:51;9.17;;;8.47;;
735;SDS011;352;48.626;9.238;2023-06-26T09:47:19;7.23;;;6.73;;
735;SDS011;352;48.626;9.238;2023-06-26T09:49:45;8.50;;;8.00;;
735;SDS011;352;48.626;9.238;2023-06-26T09:52:13;7.63;;;7.20;;
735;SDS011;352;48.626;9.238;2023-06-26T09:54:41;8.30;;;7.70;;
735;SDS011;352;48.626;9.238;2023-06-26T09:57:10;12.00;;;7.00;;
735;SDS011;352;48.626;9.238;2023-06-26T09:59:39;7.73;;;7.23;;
735;SDS011;352;48.626;9.238;2023-06-26T10:02:06;8.50;;;7.90;;
735;SDS011;352;48.626;9.238;2023-06-26T10:04:34;7.77;;;7.27;;
735;SDS011;352;48.626;9.238;2023-06-26T10:07:01;7.53;;;7.03;;
735;SDS011;352;48.626;9.238;2023-06-26T10:09:30;8.47;;;7.77;;
735;SDS011;352;48.626;9.238;2023-06-26T10:11:58;7.70;;;7.23;;
735;SDS011;352;48.626;9.238;2023-06-26T10:14:31;8.40;;;7.80;;
735;SDS011;352;48.626;9.238;2023-06-26T10:17:01;8.00;;;7.50;;
735;SDS011;352;48.626;9.238;2023-06-26T10:19:30;7.77;;;7.27;;
735;SDS011;352;48.626;9.238;2023-06-26T10:21:59;8.17;;;7.67;;
735;SDS011;352;48.626;9.238;2023-06-26T10:24:28;8.17;;;7.67;;
735;SDS011;352;48.626;9.238;2023-06-26T10:26:59;8.07;;;7.37;;
735;SDS011;352;48.626;9.238;2023-06-26T10:29:30;9.17;;;8.27;;
735;SDS011;352;48.626;9.238;2023-06-26T10:31:58;8.13;;;7.63;;
735;SDS011;352;48.626;9.238;2023-06-26T10:34:29;8.60;;;8.10;;
735;SDS011;352;48.626;9.238;2023-06-26T10:36:59;8.13;;;7.43;;
735;SDS011;352;48.626;9.238;2023-06-26T10:39:26;8.40;;;7.80;;
735;SDS011;352;48.626;9.238;2023-06-26T10:41:54;8.13;;;7.50;;
735;SDS011;352;48.626;9.238;2023-06-26T10:44:21;8.87;;;8.27;;
735;SDS011;352;48.626;9.238;2023-06-26T10:46:48;8.50;;;8.00;;
735;SDS011;352;48.626;9.238;2023-06-26T10:49:19;8.53;;;8.00;;
735;SDS011;352;48.626;9.238;2023-06-26T10:51:46;8.63;;;7.93;;
735;SDS011;352;48.626;9.238;2023-06-26T10:54:14;8.93;;;8.23;;
735;SDS011;352;48.626;9.238;2023-06-26T10:56:42;8.83;;;8.27;;
735;SDS011;352;48.626;9.238;2023-06-26T10:59:16;8.90;;;8.30;;
735;SDS011;352;48.626;9.238;2023-06-26T11:01:45;9.20;;;8.60;;
735;SDS011;352;48.626;9.238;2023-06-26T11:04:13;8.63;;;8.13;;
735;SDS011;352;48.626;9.238;2023-06-26T11:06:44;8.53;;;8.00;;
735;SDS011;352;48.626;9.238;2023-06-26T11:09:14;8.90;;;8.30;;
735;SDS011;352;48.626;9.238;2023-06-26T11:11:59;8.57;;;8.00;;
735;SDS011;352;48.626;9.238;2023-06-26T11:14:31;9.57;;;8.83;;
735;SDS011;352;48.626;9.238;2023-06-26T11:16:58;8.00;;;7.50;;
735;SDS011;352;48.626;9.238;2023-06-26T11:19:27;8.60;;;8.00;;
735;SDS011;352;48.626;9.238;2023-06-26T11:21:59;8.60;;;7.90;;
735;SDS011;352;48.626;9.238;2023-06-26T11:24:28;8.83;;;8.07;;
735;SDS011;352;48.626;9.238;2023-06-26T11:26:56;9.13;;;8.27;;
735;SDS011;352;48.626;9.238;2023-06-26T11:29:27;9.47;;;8.67;;
735;SDS011;352;48.626;9.238;2023-06-26T11:31:58;8.73;;;8.13;;
735;SDS011;352;48.626;9.238;2023-06-26T11:34:30;9.70;;;8.70;;
735;SDS011;352;48.626;9.238;2023-06-26T11:36:59;9.50;;;8.70;;
735;SDS011;352;48.626;9.238;2023-06-26T11:39:29;9.47;;;8.77;;
735;SDS011;352;48.626;9.238;2023-06-26T11:41:56;10.13;;;9.20;;
735;SDS011;352;48.626;9.238;2023-06-26T11:44:23;9.20;;;8.60;;
735;SDS011;352;48.626;9.238;2023-06-26T11:46:53;8.90;;;8.20;;
735;SDS011;352;48.626;9.238;2023-06-26T11:49:20;9.40;;;8.80;;
735;SDS011;352;48.626;9.238;2023-06-26T11:51:50;9.43;;;8.83;;
735;SDS011;352;48.626;9.238;2023-06-26T11:54:24;9.23;;;8.53;;
735;SDS011;352;48.626;9.238;2023-06-26T11:56:51;9.77;;;9.07;;
735;SDS011;352;48.626;9.238;2023-06-26T11:59:19;10.00;;;9.20;;
735;SDS011;352;48.626;9.238;2023-06-26T12:01:45;9.70;;;9.10;;
735;SDS011;352;48.626;9.238;2023-06-26T12:04:13;9.57;;;8.97;;
735;SDS011;352;48.626;9.238;2023-06-26T12:06:42;10.10;;;9.10;;
735;SDS011;352;48.626;9.238;2023-06-26T12:09:12;9.20;;;8.60;;
735;SDS011;352;48.626;9.238;2023-06-26T12:11:41;10.53;;;9.73;;
735;SDS011;352;48.626;9.238;2023-06-26T12:14:10;10.50;;;9.80;;
735;SDS011;352;48.626;9.238;2023-06-26T12:16:37;10.23;;;9.20;;
735;SDS011;352;48.626;9.238;2023-06-26T12:19:06;9.63;;;8.93;;
735;SDS011;352;48.626;9.238;2023-06-26T12:21:44;10.63;;;9.73;;
735;SDS011;352;48.626;9.238;2023-06-26T12:24:13;10.33;;;9.50;;
735;SDS011;352;48.626;9.238;2023-06-26T12:26:42;10.43;;;9.80;;
735;SDS011;352;48.626;9.238;2023-06-26T12:29:10;10.43;;;9.53;;
735;SDS011;352;48.626;9.238;2023-06-26T12:31:39;10.30;;;9.70;;
735;SDS011;352;48.626;9.238;2023-06-26T12:34:10;9.30;;;8.60;;
735;SDS011;352;48.626;9.238;2023-06-26T12:36:42;9.40;;;8.80;;
735;SDS011;352;48.626;9.238;2023-06-26T12:39:09;10.07;;;9.37;;
735;SDS011;352;48.626;9.238;2023-06-26T12:41:45;9.73;;;9.13;;
735;SDS011;352;48.626;9.238;2023-06-26T12:44:16;9.30;;;8.70;;
735;SDS011;352;48.626;9.238;2023-06-26T12:46:45;10.10;;;9.40;;
735;SDS011;352;48.626;9.238;2023-06-26T12:49:12;10.63;;;9.87;;
735;SDS011;352;48.626;9.238;2023-06-26T12:51:40;10.30;;;9.50;;
735;SDS011;352;48.626;9.238;2023-06-26T12:54:08;9.20;;;8.60;;
735;SDS011;352;48.626;9.238;2023-06-26T12:56:35;10.27;;;9.47;;
735;SDS011;352;48.626;9.238;2023-06-26T12:59:03;10.00;;;9.30;;
735;SDS011;352;48.626;9.238;2023-06-26T13:01:29;9.40;;;8.80;;
735;SDS011;352;48.626;9.238;2023-06-26T13:03:56;9.90;;;9.20;;
735;SDS011;352;48.626;9.238;2023-06-26T13:06:23;10.30;;;9.40;;
735;SDS011;352;48.626;9.238;2023-06-26T13:08:50;10.77;;;9.97;;
735;SDS011;352;48.626;9.238;2023-06-26T13:11:17;9.70;;;9.10;;
735;SDS011;352;48.626;9.238;2023-06-26T13:13:43;10.07;;;9.27;;
735;SDS011;352;48.626;9.238;2023-06-26T13:16:11;9.57;;;8.97;;
735;SDS011;352;48.626;9.238;2023-06-26T13:18:38;9.93;;;9.13;;
735;SDS011;352;48.626;9.238;2023-06-26T13:21:05;9.80;;;9.10;;
735;SDS011;352;48.626;9.238;2023-06-26T13:23:32;9.27;;;8.70;;
735;SDS011;352;48.626;9.238;2023-06-26T13:25:58;9.50;;;8.83;;
735;SDS011;352;48.626;9.238;2023-06-26T13:28:25;10.23;;;9.23;;
735;SDS011;352;48.626;9.238;2023-06-26T13:30:52;9.50;;;8.80;;
735;SDS011;352;48.626;9.238;2023-06-26T13:33:20;9.70;;;9.10;;
735;SDS011;352;48.626;9.238;2023-06-26T13:35:50;9.97;;;9.20;;
735;SDS011;352;48.626;9.238;2023-06-26T13:38:17;10.33;;;9.43;;
735;SDS011;352;48.626;9.238;2023-06-26T13:40:44;9.60;;;8.90;;
735;SDS011;352;48.626;9.238;2023-06-26T13:43:11;11.10;;;10.17;;
735;SDS011;352;48.626;9.238;2023-06-26T13:45:38;9.70;;;9.03;;
735;SDS011;352;48.626;9.238;2023-06-26T13:48:04;10.77;;;9.53;;
735;SDS011;352;48.626;9.238;2023-06-26T13:50:32;9.43;;;8.73;;
735;SDS011;352;48.626;9.238;2023-06-26T13:52:59;9.50;;;8.80;;
735;SDS011;352;48.626;9.238;2023-06-26T13:55:27;10.13;;;9.40;;
735;SDS011;352;48.626;9.238;2023-06-26T13:57:54;10.27;;;9.37;;
735;SDS011;352;48.626;9.238;2023-06-26T14:00:21;9.20;;;8.50;;
735;SDS011;352;48.626;9.238;2023-06-26T14:02:48;8.70;;;8.00;;
735;SDS011;352;48.626;9.238;2023-06-26T14:05:14;8.90;;;8.20;;
735;SDS011;352;48.626;9.238;2023-06-26T14:07:44;9.23;;;8.53;;
735;SDS011;352;48.626;9.238;2023-06-26T14:10:11;9.30;;;8.60;;
735;SDS011;352;48.626;9.238;2023-06-26T14:12:39;9.53;;;8.77;;
735;SDS011;352;48.626;9.238;2023-06-26T14:15:06;8.70;;;7.90;;
735;SDS011;352;48.626;9.238;2023-06-26T14:17:34;10.57;;;9.50;;
735;SDS011;352;48.626;9.238;2023-06-26T14:20:00;11.20;;;10.20;;
735;SDS011;352;48.626;9.238;2023-06-26T14:22:30;9.40;;;8.80;;
735;SDS011;352;48.626;9.238;2023-06-26T14:24:59;8.87;;;8.17;;
735;SDS011;352;48.626;9.238;2023-06-26T14:27:26;8.80;;;8.10;;
735;SDS011;352;48.626;9.238;2023-06-26T14:29:52;8.00;;;7.30;;
735;SDS011;352;48.626;9.238;2023-06-26T14:32:19;9.10;;;8.30;;
735;SDS011;352;48.626;9.238;2023-06-26T14:34:46;8.73;;;8.03;;
735;SDS011;352;48.626;9.238;2023-06-26T14:37:12;9.70;;;8.80;;
735;SDS011;352;48.626;9.238;2023-06-26T14:39:39;8.90;;;8.10;;
735;SDS011;352;48.626;9.238;2023-06-26T14:42:07;9.10;;;8.40;;
735;SDS011;352;48.626;9.238;2023-06-26T14:44:34;9.37;;;8.57;;
735;SDS011;352;48.626;9.238;2023-06-26T14:47:00;8.20;;;7.60;;
735;SDS011;352;48.626;9.238;2023-06-26T14:49:27;8.30;;;7.70;;
735;SDS011;352;48.626;9.238;2023-06-26T14:51:54;8.23;;;7.53;;
735;SDS011;352;48.626;9.238;2023-06-26T14:54:21;8.23;;;7.60;;
735;SDS011;352;48.626;9.238;2023-06-26T14:56:47;7.63;;;7.10;;
735;SDS011;352;48.626;9.238;2023-06-26T14:59:16;7.53;;;6.93;;
735;SDS011;352;48.626;9.238;2023-06-26T15:01:42;7.40;;;6.70;;
735;SDS011;352;48.626;9.238;2023-06-26T15:04:09;7.70;;;7.10;;
735;SDS011;352;48.626;9.238;2023-06-26T15:06:36;7.37;;;6.87;;
735;SDS011;352;48.626;9.238;2023-06-26T15:09:03;7.53;;;6.87;;
735;SDS011;352;48.626;9.238;2023-06-26T15:11:30;7.17;;;6.67;;
735;SDS011;352;48.626;9.238;2023-06-26T15:13:57;6.90;;;6.23;;
735;SDS011;352;48.626;9.238;2023-06-26T15:16:25;6.60;;;6.10;;
735;SDS011;352;48.626;9.238;2023-06-26T15:18:52;8.23;;;6.40;;
735;SDS011;352;48.626;9.238;2023-06-26T15:21:19;6.03;;;5.50;;
735;SDS011;352;48.626;9.238;2023-06-26T15:23:46;6.37;;;5.87;;
735;SDS011;352;48.626;9.238;2023-06-26T15:26:13;7.90;;;6.23;;
735;SDS011;352;48.626;9.238;2023-06-26T15:28:40;6.50;;;5.93;;
735;SDS011;352;48.626;9.238;2023-06-26T15:31:06;6.63;;;5.73;;
735;SDS011;352;48.626;9.238;2023-06-26T15:33:34;5.90;;;5.40;;
735;SDS011;352;48.626;9.238;2023-06-26T15:36:01;6.03;;;5.50;;
735;SDS011;352;48.626;9.238;2023-06-26T15:38:28;9.73;;;6.40;;
735;SDS011;352;48.626;9.238;2023-06-26T15:40:55;6.57;;;6.00;;
735;SDS011;352;48.626;9.238;2023-06-26T15:43:22;6.07;;;5.60;;